»·PEaware :: N6870P KLAX-KSAN

N6870P :: KLAX-KSAN

FLIGHT INFORMATION

Flight Status: Arrived
Operator: Privately registered:
United States
More flights under this callsign
Pilot: Larry J. (31147)
Aircraft: PIPER PA-24 COMMANCHE
(PA24)
More flights by this aircraft type
Origin: KLAX Los Angeles Intl
United States
Destination: KSAN San Diego Intl-Lindbergh
United States
More flights between these airports :: More routes between these airports
Route: SHORELINE
File this flight plan on PilotEdge
Remarks:
Altitude:
(Current/Filed)
5,500ft
Speed:
(Current/Filed)
125kts
Departed: 04-Oct-20 10:04 AM
Arrived: 04-Oct-20 10:53 AM
Distance/Time
Traveled:
95nm/0:49
Distance/Time
To Go:
Arrived

Flight Plot

Page will automatically refresh every two minutes.

Flight plan parsing failed; only flown route is shown


Map Options




Map Legend


Flown Route
Filed Route
Departure Airport
Arrival Airport
Navaid (VOR, NDB)
Fix

Horizontal Profiles

Position Reports

Time Latitude Longitude Heading Altitude Ground
Speed
04-Oct-20 09:39 33.934149 -118.394988 176 103ft 0kts
04-Oct-20 09:40 33.934149 -118.394988 176 103ft 0kts
04-Oct-20 09:41 33.934149 -118.394988 176 103ft 0kts
04-Oct-20 09:42 33.934149 -118.394988 176 103ft 0kts
04-Oct-20 09:43 33.934149 -118.394988 176 103ft 0kts
04-Oct-20 09:44 33.934149 -118.394988 176 103ft 0kts
04-Oct-20 09:45 33.934149 -118.394988 176 103ft 0kts
04-Oct-20 09:46 33.934149 -118.394988 176 103ft 0kts
04-Oct-20 09:47 33.934149 -118.394988 176 103ft 0kts
04-Oct-20 09:48 33.934149 -118.394988 176 103ft 0kts
04-Oct-20 09:49 33.934149 -118.394988 176 103ft 0kts
04-Oct-20 09:50 33.934149 -118.394988 176 103ft 0kts
04-Oct-20 09:51 33.934149 -118.394988 176 103ft 0kts
04-Oct-20 09:52 33.934149 -118.394988 176 103ft 0kts
04-Oct-20 09:53 33.934149 -118.394988 176 103ft 0kts
04-Oct-20 09:54 33.934149 -118.394988 176 103ft 0kts
04-Oct-20 09:55 33.933934 -118.394882 59 103ft 3kts
04-Oct-20 09:56 33.934350 -118.393889 13 101ft 0kts
04-Oct-20 09:57 33.935072 -118.393721 40 101ft 1kts
04-Oct-20 09:58 33.935659 -118.387267 82 97ft 29kts
04-Oct-20 09:59 33.935996 -118.383536 79 95ft 0kts
04-Oct-20 10:00 33.935996 -118.383536 79 95ft 0kts
04-Oct-20 10:01 33.935997 -118.383534 79 95ft 0kts
04-Oct-20 10:02 33.937208 -118.384360 259 96ft 25kts
04-Oct-20 10:03 33.933858 -118.416257 259 1006ft 119kts
04-Oct-20 10:04 33.911274 -118.420301 158 2458ft 128kts
04-Oct-20 10:05 33.874897 -118.399414 106 2491ft 135kts
04-Oct-20 10:06 33.854684 -118.362629 125 2474ft 138kts
04-Oct-20 10:07 33.831969 -118.324044 124 2472ft 142kts
04-Oct-20 10:08 33.809654 -118.285854 123 2472ft 138kts
04-Oct-20 10:09 33.787319 -118.247655 123 2472ft 140kts
04-Oct-20 10:10 33.765268 -118.209821 124 2472ft 137kts
04-Oct-20 10:11 33.743707 -118.171661 120 2472ft 137kts
04-Oct-20 10:12 33.723462 -118.132544 120 2472ft 138kts
04-Oct-20 10:13 33.703375 -118.093688 118 2770ft 134kts
04-Oct-20 10:14 33.684385 -118.057622 119 4394ft 124kts
04-Oct-20 10:15 33.665454 -118.021348 120 5482ft 158kts
04-Oct-20 10:16 33.636694 -117.975090 130 5463ft 159kts
04-Oct-20 10:17 33.607165 -117.930450 126 5472ft 178kts
04-Oct-20 10:18 33.578001 -117.887056 127 5470ft 160kts
04-Oct-20 10:19 33.550182 -117.846065 127 5471ft 157kts
04-Oct-20 10:20 33.522777 -117.805266 127 5471ft 157kts
04-Oct-20 10:21 33.495383 -117.764458 127 5472ft 159kts
04-Oct-20 10:22 33.465455 -117.719379 127 5472ft 178kts
04-Oct-20 10:23 33.430392 -117.676967 134 5471ft 180kts
04-Oct-20 10:24 33.394656 -117.634910 134 5471ft 180kts
04-Oct-20 10:25 33.358843 -117.592930 134 5471ft 180kts
04-Oct-20 10:26 33.323023 -117.551036 134 5470ft 179kts
04-Oct-20 10:27 33.288380 -117.511002 134 5469ft 162kts
04-Oct-20 10:28 33.256878 -117.474530 134 5471ft 155kts
04-Oct-20 10:29 33.226260 -117.438936 134 5470ft 149kts
04-Oct-20 10:30 33.196851 -117.405177 134 5477ft 144kts
04-Oct-20 10:31 33.168136 -117.372191 134 5481ft 143kts
04-Oct-20 10:32 33.139552 -117.338779 136 5479ft 143kts
04-Oct-20 10:33 33.109376 -117.324487 157 4637ft 107kts
04-Oct-20 10:34 33.081164 -117.311765 158 3637ft 109kts
04-Oct-20 10:35 33.054999 -117.299906 157 3481ft 98kts
04-Oct-20 10:36 33.029087 -117.288410 157 3480ft 99kts
04-Oct-20 10:37 33.003087 -117.276901 157 3480ft 99kts
04-Oct-20 10:38 32.977139 -117.265422 157 3480ft 99kts
04-Oct-20 10:39 32.951148 -117.258034 164 3477ft 90kts
04-Oct-20 10:40 32.926106 -117.250738 164 3481ft 94kts
04-Oct-20 10:41 32.900511 -117.243975 182 3472ft 95kts
04-Oct-20 10:42 32.874403 -117.247289 183 3480ft 94kts
04-Oct-20 10:43 32.848226 -117.250122 183 3480ft 94kts
04-Oct-20 10:44 32.831261 -117.229169 117 3239ft 108kts
04-Oct-20 10:45 32.808250 -117.209389 160 2944ft 92kts
04-Oct-20 10:46 32.783636 -117.204341 169 2743ft 89kts
04-Oct-20 10:47 32.758466 -117.198757 156 1966ft 88kts
04-Oct-20 10:48 32.743410 -117.179476 98 1095ft 84kts
04-Oct-20 10:49 32.737499 -117.153778 131 1066ft 78kts
04-Oct-20 10:50 32.726173 -117.162147 295 614ft 82kts
04-Oct-20 10:51 32.732406 -117.184981 286 19ft 48kts
04-Oct-20 10:52 32.734683 -117.187900 19 19ft 16kts

Navigation Log

Ident Type
Flight plan parsing failed, navigation log unavailable